Ana Sayfa
METAR-TAF:

METAR-TAF

Havaalanları :

Uşak Havalimanı

Uşak, Türkiye

Enlem: 38-40N, Boylam: 029-25E, yükseklik: 919 m

Güncel hava durumu gözlemi

Rapor saat 09:50 UTC de 4 saat ve 53 dakika önce yapıldı.
Rüzgar doğu/kuzeydoğudan 11 kt, kuzey ve doğu arasında değişken
Sıcaklık 9°C
Nem 49%
Basınç 1020 hPa
Görüş mesafesi 10 km veya daha fazla
4000 ft yükseklikte parçalı bulutlu
10000 ft yükseklikte parçalı bulutlu

METAR: LTBO 210950Z 06011KT 010V090 9999 SCT040 SCT100 09/M01 Q1020

Saat: 17:43 (14:43 UTC)

Tahmin

Rapor saat 13:40 UTC de 1 saat ve 3 dakika önce yapıldı.
Ayın 21'si saat 15 UTC'den ayın 21'si saat 24 UTC'ye kadar geçerli Tahmin
Rüzgar kuzeydan 12 kt
Görüş mesafesi 10 km veya daha fazla
4000 ft yükseklikte parçalı bulutlu
10000 ft yükseklikte parçalı bulutlu
Dönüşüyor
ayın 21'si saat 15 UTC'den ayın 21'si saat 18 UTC'ye kadar
Rüzgar değişken yönden 2 kt

TAF: LTBO 211340Z 2115/2124 36012KT 9999 SCT040 SCT100 BECMG 2115/2118 VRB02KT

4.000'den fazla havaalanı için hava durumu gözlemleri ve tahminleri (METAR ve TAF raporları).

Kullanılabilir istasyonlar harita üzerinde sarı ve kırmızı noktalarla gösterilir.

İstasyonun adını görmek için fareyi noktanın üzerinde gezdirin.

Sonrasında hava gözlem ve tahminlerini görmek için tıklayın.

Haritayı değiştirmek için: yaklaştırmak için siyah artı işaretli yeşil düğmeye ve uzaklaştırmak için de eksi işaretli düğmeye hızla tıklayın; bitişik haritalar için yeşil okları kullanın.


METAR-TAF: